Time;durP1;ratioP1;P1;durP2;ratioP2;P2;SDS_P1;SDS_P2;PMS_P1;PMS_P2;Temp;Humidity;BMP_temperature;BMP_pressure;BME280_temperature;BME280_humidity;BME280_pressure;Samples;Min_cycle;Max_cycle;Signal;HPM_P1;HPM_P2
2024/03/14 08:00:33;;;;;;;1.52;0.63;;;15.70;99.90;;;;;;4929413;23;20248;-70
2024/03/14 08:03:01;;;;;;;0.60;0.50;;;16.00;99.90;;;;;;4913345;29;20214;-71
2024/03/14 08:05:31;;;;;;;0.90;0.65;;;16.40;99.90;;;;;;4915589;29;20757;-71
2024/03/14 08:07:59;;;;;;;1.17;0.68;;;16.50;99.90;;;;;;4901393;29;20210;-71
2024/03/14 08:10:28;;;;;;;1.65;0.88;;;16.20;99.90;;;;;;4882342;29;20338;-71
2024/03/14 08:12:57;;;;;;;1.23;0.90;;;15.70;99.90;;;;;;4881817;29;20214;-71
2024/03/14 08:15:30;;;;;;;1.17;0.70;;;15.80;99.90;;;;;;4882212;29;20284;-71
2024/03/14 08:17:59;;;;;;;1.40;0.70;;;16.00;99.90;;;;;;4882515;29;20293;-71
2024/03/14 08:20:26;;;;;;;1.38;0.90;;;16.40;99.90;;;;;;4878801;29;20369;-73
2024/03/14 08:22:54;;;;;;;3.17;1.08;;;16.10;99.90;;;;;;4881361;29;20262;-75
2024/03/14 08:25:24;;;;;;;1.38;0.60;;;15.40;99.90;;;;;;4881941;29;20214;-72
2024/03/14 08:27:51;;;;;;;0.73;0.60;;;15.20;99.90;;;;;;4881864;29;20706;-72
2024/03/14 08:30:19;;;;;;;1.63;0.70;;;15.20;99.90;;;;;;4881462;29;20238;-72
2024/03/14 08:32:46;;;;;;;1.87;0.90;;;15.10;99.90;;;;;;4881684;29;20750;-73
2024/03/14 08:35:14;;;;;;;1.10;0.57;;;15.00;99.90;;;;;;4881439;29;20637;-72
2024/03/14 08:37:43;;;;;;;0.83;0.80;;;14.80;99.90;;;;;;4881770;29;20237;-72
2024/03/14 08:40:11;;;;;;;1.23;0.97;;;15.00;99.90;;;;;;4882118;29;20222;-72
2024/03/14 08:42:39;;;;;;;2.13;0.70;;;15.20;99.90;;;;;;4882083;29;20222;-72
2024/03/14 08:45:09;;;;;;;2.30;0.70;;;15.30;99.90;;;;;;4881851;29;20211;-72
2024/03/14 08:47:36;;;;;;;0.90;0.63;;;15.30;99.90;;;;;;4882207;29;20585;-72
2024/03/14 08:50:05;;;;;;;1.17;0.60;;;15.70;99.90;;;;;;4881581;29;20333;-73
2024/03/14 08:52:32;;;;;;;0.90;0.75;;;16.10;99.90;;;;;;4881860;29;20230;-72
2024/03/14 08:54:58;;;;;;;2.25;0.88;;;16.20;99.90;;;;;;4881373;29;20654;-72
2024/03/14 08:57:26;;;;;;;1.30;0.50;;;16.50;99.90;;;;;;4881412;29;20250;-72
2024/03/14 08:59:53;;;;;;;1.20;0.60;;;16.40;99.90;;;;;;4881678;29;20218;-72
2024/03/14 09:02:22;;;;;;;1.77;0.60;;;16.70;99.90;;;;;;4881867;29;20210;-72
2024/03/14 09:04:51;;;;;;;1.52;0.70;;;17.00;99.90;;;;;;4881687;29;20304;-72
2024/03/14 09:07:18;;;;;;;1.33;0.50;;;16.90;99.90;;;;;;4881430;29;20241;-72
2024/03/14 09:09:45;;;;;;;1.17;0.40;;;16.80;99.90;;;;;;4881477;29;20249;-73
2024/03/14 09:12:17;;;;;;;2.33;0.50;;;17.00;99.90;;;;;;4881334;29;20327;-72
2024/03/14 09:14:44;;;;;;;1.42;0.60;;;17.30;99.90;;;;;;4882048;29;20243;-72
2024/03/14 09:17:12;;;;;;;1.55;0.60;;;17.30;99.90;;;;;;4881150;29;20277;-73
2024/03/14 09:19:39;;;;;;;1.00;0.70;;;17.10;99.90;;;;;;4881232;29;20214;-73
2024/03/14 09:22:06;;;;;;;0.88;0.50;;;17.10;99.90;;;;;;4881031;29;20210;-72
2024/03/14 09:24:33;;;;;;;1.42;0.70;;;17.40;99.90;;;;;;4881558;29;20210;-72
2024/03/14 09:27:02;;;;;;;0.55;0.40;;;17.30;99.90;;;;;;4881569;29;20241;-72
2024/03/14 09:29:30;;;;;;;0.93;0.60;;;16.70;99.90;;;;;;4881544;29;20645;-72
2024/03/14 09:31:59;;;;;;;1.10;0.40;;;16.30;99.90;;;;;;4884822;29;20210;-73
2024/03/14 09:34:27;;;;;;;0.50;0.50;;;16.20;99.90;;;;;;4885181;29;20245;-73
2024/03/14 09:36:55;;;;;;;1.33;0.50;;;16.20;99.90;;;;;;4885053;29;20268;-73
2024/03/14 09:39:22;;;;;;;1.42;0.50;;;16.00;99.90;;;;;;4885118;29;20230;-73
2024/03/14 09:41:50;;;;;;;1.27;1.03;;;16.10;99.90;;;;;;4884635;29;20210;-73
2024/03/14 09:44:18;;;;;;;0.90;0.40;;;16.00;99.90;;;;;;4884938;29;20214;-73
2024/03/14 09:46:45;;;;;;;3.33;0.80;;;15.80;99.90;;;;;;4884569;29;20262;-73
2024/03/14 09:49:13;;;;;;;2.27;0.50;;;15.70;99.90;;;;;;4884635;29;20246;-74
2024/03/14 09:51:40;;;;;;;1.80;0.70;;;15.70;99.90;;;;;;4884735;29;20748;-73
2024/03/14 09:54:07;;;;;;;0.73;0.47;;;15.70;99.90;;;;;;4884726;29;20224;-73
2024/03/14 09:56:35;;;;;;;0.90;0.50;;;15.80;99.90;;;;;;4884830;29;20563;-73
2024/03/14 09:59:02;;;;;;;2.33;0.40;;;15.90;99.90;;;;;;4884514;29;20221;-74
2024/03/14 10:01:29;;;;;;;2.13;0.30;;;16.00;99.90;;;;;;4884447;29;20686;-73
2024/03/14 10:03:59;;;;;;;0.80;0.30;;;16.00;99.90;;;;;;4884396;29;20742;-73
2024/03/14 10:06:27;;;;;;;2.30;0.50;;;16.00;99.90;;;;;;4884995;29;20234;-73
2024/03/14 10:08:55;;;;;;;2.30;0.50;;;15.90;99.90;;;;;;4884766;29;20211;-73
2024/03/14 10:11:22;;;;;;;0.90;0.47;;;15.70;99.90;;;;;;4884172;29;20636;-73
2024/03/14 10:13:49;;;;;;;4.00;0.50;;;15.90;99.90;;;;;;4884431;29;20214;-73
2024/03/14 10:16:17;;;;;;;0.47;0.37;;;15.80;99.90;;;;;;4883957;29;20230;-74
2024/03/14 10:18:46;;;;;;;0.63;0.50;;;15.80;99.90;;;;;;4884263;29;20623;-72
2024/03/14 10:21:13;;;;;;;2.23;0.60;;;15.80;99.90;;;;;;4884498;29;20265;-74
2024/03/14 10:23:40;;;;;;;1.33;0.50;;;16.00;99.90;;;;;;4884494;29;20210;-73
2024/03/14 10:26:09;;;;;;;2.10;0.60;;;15.90;99.90;;;;;;4884060;29;20240;-73
2024/03/14 10:28:38;;;;;;;1.53;0.50;;;16.00;99.90;;;;;;4884296;29;20298;-74
2024/03/14 10:31:06;;;;;;;2.87;0.37;;;16.10;99.90;;;;;;4883954;29;20238;-73
2024/03/14 10:33:33;;;;;;;1.97;0.60;;;16.10;99.90;;;;;;4884280;29;20293;-73
2024/03/14 10:36:00;;;;;;;1.87;0.70;;;16.20;99.90;;;;;;4884187;29;20230;-73
2024/03/14 10:38:27;;;;;;;1.13;0.60;;;16.10;99.90;;;;;;4884457;29;20242;-73
2024/03/14 10:40:56;;;;;;;1.27;0.70;;;15.90;99.90;;;;;;4883523;29;20218;-73
2024/03/14 10:43:23;;;;;;;2.53;0.50;;;16.00;99.90;;;;;;4884202;29;20271;-73
2024/03/14 10:45:52;;;;;;;3.03;0.47;;;16.00;99.90;;;;;;4883705;29;20309;-73
2024/03/14 10:48:23;;;;;;;1.57;0.73;;;16.00;99.90;;;;;;4883920;29;20222;-73
2024/03/14 10:50:54;;;;;;;1.10;0.40;;;16.10;99.90;;;;;;4884094;29;20238;-73
2024/03/14 10:53:21;;;;;;;0.80;0.40;;;16.30;99.90;;;;;;4883956;29;20269;-73
2024/03/14 10:55:49;;;;;;;0.73;0.40;;;16.30;99.90;;;;;;4883480;29;20661;-73
2024/03/14 10:58:17;;;;;;;1.60;0.50;;;16.30;99.90;;;;;;4883398;29;20305;-73
2024/03/14 11:00:45;;;;;;;0.43;0.30;;;16.40;99.90;;;;;;4883459;29;20308;-73
2024/03/14 11:03:17;;;;;;;1.65;0.60;;;16.30;99.90;;;;;;4884212;29;20576;-73
2024/03/14 11:05:48;;;;;;;1.67;0.77;;;16.40;99.90;;;;;;4884032;29;20215;-73
2024/03/14 11:08:18;;;;;;;0.97;0.50;;;16.50;99.90;;;;;;4868961;29;20210;-73
2024/03/14 11:10:45;;;;;;;0.50;0.40;;;16.50;99.90;;;;;;4883419;29;20277;-73
2024/03/14 11:13:14;;;;;;;1.02;0.60;;;16.50;99.90;;;;;;4883300;29;20211;-73
2024/03/14 11:15:42;;;;;;;2.50;0.57;;;16.60;99.90;;;;;;4882968;29;20249;-73
2024/03/14 11:18:13;;;;;;;0.73;0.47;;;16.70;99.90;;;;;;4883277;29;20293;-73
2024/03/14 11:20:40;;;;;;;1.40;0.50;;;16.90;99.90;;;;;;4883368;29;20583;-74
2024/03/14 11:23:09;;;;;;;2.75;0.65;;;16.90;99.90;;;;;;4882934;29;20214;-73
2024/03/14 11:25:36;;;;;;;0.52;0.40;;;16.90;99.90;;;;;;4883421;29;20214;-73
2024/03/14 11:28:04;;;;;;;0.50;0.30;;;17.00;99.90;;;;;;4883167;29;20297;-72
2024/03/14 11:30:32;;;;;;;1.25;0.40;;;17.00;99.90;;;;;;4882895;29;20234;-72
2024/03/14 11:32:59;;;;;;;2.17;0.40;;;17.00;99.90;;;;;;4883184;29;20211;-72
2024/03/14 11:35:38;;;;;;;1.33;0.57;;;16.90;99.90;;;;;;4882600;29;20297;-73
2024/03/14 11:38:23;;;;;;;1.90;0.60;;;17.00;99.90;;;;;;4883168;29;20210;-73
2024/03/14 11:40:50;;;;;;;5.63;0.70;;;17.10;99.90;;;;;;4898085;29;20225;-73
2024/03/14 11:43:17;;;;;;;2.35;0.50;;;17.10;99.90;;;;;;4882367;29;20310;-73
2024/03/14 11:45:44;;;;;;;0.80;0.50;;;17.10;99.90;;;;;;4882456;29;20213;-73
2024/03/14 11:48:11;;;;;;;1.95;0.60;;;17.10;99.90;;;;;;4882203;29;20223;-72
2024/03/14 11:50:40;;;;;;;1.38;0.60;;;17.20;99.90;;;;;;4882452;29;20321;-72
2024/03/14 11:53:08;;;;;;;1.15;0.40;;;17.30;99.90;;;;;;4881710;29;20301;-73
2024/03/14 11:55:35;;;;;;;0.88;0.60;;;17.40;99.90;;;;;;4882471;29;20671;-72
2024/03/14 11:58:04;;;;;;;2.03;0.60;;;17.40;99.90;;;;;;4882711;29;20206;-72
2024/03/14 12:00:32;;;;;;;1.45;1.15;;;17.40;99.90;;;;;;4882518;29;20218;-72
2024/03/14 12:03:00;;;;;;;0.85;0.50;;;17.40;99.90;;;;;;4882714;29;20686;-73
2024/03/14 12:05:27;;;;;;;1.83;0.57;;;17.50;99.90;;;;;;4882365;29;20270;-73
2024/03/14 12:07:58;;;;;;;0.70;0.50;;;17.60;99.90;;;;;;4882491;29;20210;-72
2024/03/14 12:10:25;;;;;;;3.85;0.70;;;17.80;99.90;;;;;;4882849;29;20221;-72
2024/03/14 12:12:54;;;;;;;2.45;1.67;;;17.80;99.90;;;;;;4882185;29;20672;-72
2024/03/14 12:15:23;;;;;;;3.90;0.50;;;17.90;99.90;;;;;;4882006;29;20274;-72
2024/03/14 12:17:55;;;;;;;1.10;0.60;;;18.00;99.90;;;;;;4882100;29;20635;-73
2024/03/14 12:20:23;;;;;;;2.25;0.70;;;18.10;99.90;;;;;;4882814;29;20206;-73
2024/03/14 12:22:51;;;;;;;1.00;0.50;;;18.20;99.90;;;;;;4882040;29;20609;-72
2024/03/14 12:25:19;;;;;;;1.08;0.40;;;18.20;99.90;;;;;;4882500;29;20217;-73
2024/03/14 12:27:47;;;;;;;1.02;0.50;;;18.20;99.90;;;;;;4882112;29;20236;-72
2024/03/14 12:30:16;;;;;;;2.70;0.80;;;18.30;99.90;;;;;;4882029;29;20628;-72
2024/03/14 12:32:44;;;;;;;1.30;0.85;;;18.30;99.90;;;;;;4882477;29;20237;-72
2024/03/14 12:35:11;;;;;;;2.55;0.60;;;18.40;99.90;;;;;;4881979;29;20241;-73
2024/03/14 12:37:40;;;;;;;1.88;0.60;;;18.70;99.90;;;;;;4882128;29;20234;-72
2024/03/14 12:40:08;;;;;;;0.88;0.50;;;18.70;99.90;;;;;;4882132;29;20583;-72
2024/03/14 12:42:36;;;;;;;1.75;0.70;;;18.70;99.90;;;;;;4882755;29;20265;-72
2024/03/14 12:45:04;;;;;;;3.33;0.70;;;18.80;99.90;;;;;;4884083;29;20218;-73
2024/03/14 12:47:31;;;;;;;2.15;0.70;;;18.90;99.90;;;;;;4883864;29;20253;-73
2024/03/14 12:49:58;;;;;;;2.60;0.50;;;19.20;99.90;;;;;;4884476;29;20218;-73
2024/03/14 12:52:27;;;;;;;1.90;0.70;;;19.30;99.90;;;;;;4883455;29;20238;-72
2024/03/14 12:54:54;;;;;;;1.05;0.50;;;19.60;99.90;;;;;;4883721;29;20301;-73
2024/03/14 12:57:22;;;;;;;3.00;0.90;;;19.70;99.90;;;;;;4883171;29;20266;-73
2024/03/14 12:59:49;;;;;;;1.95;0.73;;;19.80;99.90;;;;;;4883266;29;20257;-73
2024/03/14 13:02:19;;;;;;;1.13;0.55;;;19.60;99.90;;;;;;4882706;29;20217;-73
2024/03/14 13:04:46;;;;;;;2.67;0.60;;;19.60;99.90;;;;;;4882043;29;20266;-73
2024/03/14 13:07:18;;;;;;;1.33;0.98;;;19.70;99.90;;;;;;4882333;29;20284;-74
2024/03/14 13:09:46;;;;;;;1.52;0.63;;;19.80;99.90;;;;;;4882212;29;20225;-73
2024/03/14 13:12:18;;;;;;;1.27;0.60;;;20.10;99.90;;;;;;4881719;29;20610;-73
2024/03/14 13:14:59;;;;;;;0.80;0.50;;;20.20;99.90;;;;;;4881571;29;20217;-74
2024/03/14 13:17:27;;;;;;;0.88;0.50;;;19.90;99.90;;;;;;4884217;29;20234;-75
2024/03/14 13:19:57;;;;;;;0.95;0.50;;;19.70;99.90;;;;;;4881221;29;20217;-74
2024/03/14 13:22:24;;;;;;;0.68;0.47;;;19.80;99.90;;;;;;4881496;29;20224;-74
2024/03/14 13:24:54;;;;;;;1.63;0.70;;;19.60;99.90;;;;;;4880945;29;20726;-74
2024/03/14 13:27:21;;;;;;;1.13;0.70;;;19.60;99.90;;;;;;4881424;29;20289;-74
2024/03/14 13:29:48;;;;;;;4.45;0.55;;;19.70;99.90;;;;;;4881181;29;20210;-74
2024/03/14 13:32:15;;;;;;;2.75;0.68;;;19.80;99.90;;;;;;4880879;29;20585;-74
2024/03/14 13:34:43;;;;;;;0.63;0.40;;;19.60;99.90;;;;;;4881383;29;20301;-74
2024/03/14 13:37:12;;;;;;;1.45;0.40;;;19.60;99.90;;;;;;4881473;29;20238;-73
2024/03/14 13:39:39;;;;;;;1.55;0.70;;;19.50;99.90;;;;;;4881611;29;20301;-74
2024/03/14 13:42:06;;;;;;;2.35;0.40;;;19.60;99.90;;;;;;4881111;29;20298;-74
2024/03/14 13:44:33;;;;;;;0.75;0.40;;;19.60;99.90;;;;;;4881155;29;20293;-74
2024/03/14 13:47:02;;;;;;;0.43;0.38;;;19.90;99.90;;;;;;4881015;29;20246;-74
2024/03/14 13:49:35;;;;;;;0.30;0.30;;;20.00;99.90;;;;;;4881036;29;20694;-74
2024/03/14 13:52:03;;;;;;;0.38;0.25;;;19.80;99.90;;;;;;4881727;29;20242;-74
2024/03/14 13:54:30;;;;;;;1.33;0.50;;;19.90;99.90;;;;;;4880922;29;20210;-74
2024/03/14 13:56:58;;;;;;;0.65;0.30;;;19.80;99.90;;;;;;4880881;29;20320;-74
2024/03/14 13:59:25;;;;;;;0.82;0.40;;;19.50;99.90;;;;;;4880601;29;20217;-73
2024/03/14 14:01:52;;;;;;;1.23;0.43;;;19.50;99.90;;;;;;4880701;29;20273;-74
2024/03/14 14:04:20;;;;;;;0.60;0.35;;;19.40;99.90;;;;;;4880774;29;20242;-74
2024/03/14 14:06:47;;;;;;;1.33;0.30;;;19.50;99.90;;;;;;4880916;29;20408;-74
2024/03/14 14:09:16;;;;;;;1.17;0.40;;;19.50;99.90;;;;;;4880924;29;20214;-73
2024/03/14 14:11:43;;;;;;;1.75;0.40;;;19.40;99.90;;;;;;4880826;29;20234;-73
2024/03/14 14:14:16;;;;;;;0.68;0.38;;;19.40;99.90;;;;;;4880894;29;20625;-74
2024/03/14 14:16:43;;;;;;;0.40;0.30;;;19.30;99.90;;;;;;4882950;29;20230;-73
2024/03/14 14:19:10;;;;;;;0.90;0.50;;;19.30;99.90;;;;;;4884361;29;20246;-74
2024/03/14 14:21:38;;;;;;;0.70;0.50;;;19.30;99.90;;;;;;4883954;29;20742;-74
2024/03/14 14:24:05;;;;;;;2.03;0.40;;;19.50;99.90;;;;;;4884295;29;20262;-74
2024/03/14 14:26:32;;;;;;;0.65;0.40;;;19.40;99.90;;;;;;4884006;29;20261;-74
2024/03/14 14:28:59;;;;;;;0.80;0.40;;;19.60;99.90;;;;;;4884293;29;20250;-74
2024/03/14 14:31:27;;;;;;;1.17;0.38;;;19.40;99.90;;;;;;4883648;29;20324;-74
2024/03/14 14:33:55;;;;;;;1.90;0.43;;;19.40;99.90;;;;;;4883999;29;20210;-71
2024/03/14 14:36:22;;;;;;;0.30;0.28;;;19.40;99.90;;;;;;4884127;29;20238;-74
2024/03/14 14:38:51;;;;;;;0.70;0.40;;;19.40;99.90;;;;;;4883887;29;20249;-74
2024/03/14 14:41:19;;;;;;;1.48;0.43;;;19.30;99.90;;;;;;4884221;29;20221;-73
2024/03/14 14:43:46;;;;;;;0.50;0.40;;;19.30;99.90;;;;;;4883830;29;20562;-73
2024/03/14 14:46:14;;;;;;;0.60;0.45;;;19.00;99.90;;;;;;4883691;29;20262;-74
2024/03/14 14:48:41;;;;;;;0.75;0.40;;;19.00;99.90;;;;;;4883775;29;20455;-74
2024/03/14 14:51:08;;;;;;;1.67;0.57;;;19.00;99.90;;;;;;4883518;29;20206;-74
2024/03/14 14:53:35;;;;;;;0.63;0.35;;;19.00;99.90;;;;;;4883251;29;20245;-73
2024/03/14 14:56:13;;;;;;;0.70;0.30;;;19.00;99.90;;;;;;4883701;29;20269;-74
2024/03/14 14:58:41;;;;;;;0.65;0.40;;;19.00;99.90;;;;;;4884882;29;20221;-74
2024/03/14 15:01:08;;;;;;;0.80;0.40;;;19.10;99.90;;;;;;4882943;29;20225;-73
2024/03/14 15:03:35;;;;;;;0.70;0.55;;;19.10;99.90;;;;;;4883144;29;20355;-73
2024/03/14 15:06:05;;;;;;;0.60;0.38;;;19.20;99.90;;;;;;4883164;29;20317;-73
2024/03/14 15:08:32;;;;;;;1.50;0.60;;;19.30;99.90;;;;;;4883993;29;20214;-73
2024/03/14 15:10:59;;;;;;;0.50;0.50;;;19.20;99.90;;;;;;4883487;29;20214;-74
2024/03/14 15:13:26;;;;;;;0.85;0.40;;;19.40;99.90;;;;;;4883113;29;20324;-74
2024/03/14 15:15:55;;;;;;;0.55;0.30;;;19.30;99.90;;;;;;4882934;29;20334;-73
2024/03/14 15:18:22;;;;;;;0.70;0.40;;;19.30;99.90;;;;;;4883251;29;20687;-73
2024/03/14 15:20:49;;;;;;;0.65;0.40;;;19.20;99.90;;;;;;4883304;29;20246;-73
2024/03/14 15:23:16;;;;;;;1.23;0.55;;;19.00;99.90;;;;;;4883316;29;20294;-74
2024/03/14 15:25:43;;;;;;;0.98;0.52;;;18.90;99.90;;;;;;4883023;29;20238;-73
2024/03/14 15:28:10;;;;;;;0.40;0.30;;;18.80;99.90;;;;;;4882640;29;20708;-73
2024/03/14 15:30:38;;;;;;;1.20;0.40;;;18.90;99.90;;;;;;4882917;29;20415;-73
2024/03/14 15:33:05;;;;;;;1.45;0.45;;;18.80;99.90;;;;;;4882943;29;20234;-73
2024/03/14 15:35:33;;;;;;;1.17;0.40;;;18.80;99.90;;;;;;4882785;29;20760;-73
2024/03/14 15:38:01;;;;;;;0.65;0.30;;;18.90;99.90;;;;;;4883017;29;20245;-73
2024/03/14 15:40:28;;;;;;;0.30;0.30;;;19.00;99.90;;;;;;4882474;29;20241;-73
2024/03/14 15:42:57;;;;;;;0.50;0.38;;;18.70;99.90;;;;;;4882602;29;20258;-73
2024/03/14 15:45:25;;;;;;;1.30;0.30;;;18.60;99.90;;;;;;4882772;29;20214;-73
2024/03/14 15:47:52;;;;;;;2.33;0.30;;;18.50;99.90;;;;;;4882611;29;20231;-73
2024/03/14 15:50:21;;;;;;;0.40;0.30;;;18.50;99.90;;;;;;4882868;29;20242;-73
2024/03/14 15:52:49;;;;;;;1.13;0.47;;;18.60;99.90;;;;;;4882869;29;20238;-74
2024/03/14 15:55:17;;;;;;;1.27;0.45;;;18.60;99.90;;;;;;4882400;29;20687;-73
2024/03/14 15:57:45;;;;;;;0.63;0.40;;;18.50;99.90;;;;;;4882253;29;20293;-74
2024/03/14 16:00:13;;;;;;;0.43;0.25;;;18.60;99.90;;;;;;4882458;29;20228;-73
2024/03/14 16:02:40;;;;;;;0.73;0.28;;;18.60;99.90;;;;;;4882668;29;20206;-73
2024/03/14 16:05:08;;;;;;;0.60;0.40;;;18.70;99.90;;;;;;4882437;29;20218;-73
2024/03/14 16:07:36;;;;;;;0.70;0.40;;;18.60;99.90;;;;;;4882338;29;20226;-73
2024/03/14 16:10:04;;;;;;;1.10;0.32;;;18.60;99.90;;;;;;4882506;29;20234;-74
2024/03/14 16:12:31;;;;;;;0.68;0.50;;;18.50;99.90;;;;;;4882133;29;20257;-73
2024/03/14 16:14:58;;;;;;;1.17;0.40;;;18.30;99.90;;;;;;4881878;29;20238;-74
2024/03/14 16:17:26;;;;;;;0.77;0.45;;;18.10;99.90;;;;;;4882082;29;20226;-73
2024/03/14 16:19:53;;;;;;;0.35;0.30;;;18.10;99.90;;;;;;4882248;29;20300;-73
2024/03/14 16:22:20;;;;;;;0.65;0.30;;;18.00;99.90;;;;;;4881917;29;20707;-73
2024/03/14 16:24:47;;;;;;;1.48;0.30;;;18.00;99.90;;;;;;4881940;29;20290;-73
2024/03/14 16:27:14;;;;;;;0.63;0.40;;;18.00;99.90;;;;;;4881806;29;20262;-73
2024/03/14 16:29:41;;;;;;;0.55;0.35;;;18.00;99.90;;;;;;4881855;29;20656;-73
2024/03/14 16:32:09;;;;;;;1.42;0.40;;;18.00;99.90;;;;;;4881858;29;20238;-73
2024/03/14 16:34:36;;;;;;;0.47;0.30;;;17.90;99.90;;;;;;4881902;29;20214;-73
2024/03/14 16:37:04;;;;;;;0.73;0.55;;;18.00;99.90;;;;;;4881992;29;20329;-73
2024/03/14 16:39:31;;;;;;;1.85;0.35;;;17.90;99.90;;;;;;4881524;29;20222;-73
2024/03/14 16:41:59;;;;;;;1.23;0.40;;;17.90;99.90;;;;;;4881389;29;20297;-73
2024/03/14 16:44:28;;;;;;;0.80;0.30;;;17.90;99.90;;;;;;4881592;29;20213;-73
2024/03/14 16:46:55;;;;;;;1.05;0.40;;;17.90;99.90;;;;;;4881833;29;20615;-73
2024/03/14 16:49:22;;;;;;;1.23;0.52;;;17.80;99.90;;;;;;4881522;29;20254;-72
2024/03/14 16:51:49;;;;;;;0.90;0.40;;;17.90;99.90;;;;;;4881730;29;20256;-74
2024/03/14 16:54:21;;;;;;;0.70;0.35;;;17.80;99.90;;;;;;4881448;29;20668;-73
2024/03/14 16:56:48;;;;;;;0.77;0.40;;;17.90;99.90;;;;;;4881743;29;20715;-73
2024/03/14 16:59:15;;;;;;;1.85;0.30;;;17.80;99.90;;;;;;4881344;29;20249;-73
2024/03/14 17:01:43;;;;;;;1.20;0.70;;;17.80;99.90;;;;;;4881091;29;20268;-74
2024/03/14 17:04:10;;;;;;;0.75;0.50;;;17.90;99.90;;;;;;4881514;29;20237;-73
2024/03/14 17:06:37;;;;;;;0.80;0.35;;;17.90;99.90;;;;;;4881107;29;20226;-73
2024/03/14 17:09:07;;;;;;;1.23;1.00;;;17.80;99.90;;;;;;4881169;29;20687;-73
2024/03/14 17:11:37;;;;;;;1.02;0.40;;;17.80;99.90;;;;;;4881873;29;20218;-73
2024/03/14 17:14:04;;;;;;;1.20;0.63;;;17.60;99.90;;;;;;4881527;29;20239;-74
2024/03/14 17:16:32;;;;;;;0.50;0.47;;;17.40;99.90;;;;;;4881122;29;20234;-73
2024/03/14 17:18:59;;;;;;;0.98;0.70;;;17.30;99.90;;;;;;4881206;29;20214;-72
2024/03/14 17:21:26;;;;;;;2.55;0.50;;;17.20;99.90;;;;;;4881242;29;20698;-73
2024/03/14 17:23:53;;;;;;;0.90;0.60;;;17.00;99.90;;;;;;4881141;29;20747;-73
2024/03/14 17:26:20;;;;;;;2.15;0.60;;;17.00;99.90;;;;;;4880963;29;20234;-73
2024/03/14 17:28:48;;;;;;;0.60;0.50;;;17.00;99.90;;;;;;4880783;29;20313;-73
2024/03/14 17:31:17;;;;;;;0.57;0.45;;;17.00;99.90;;;;;;4881047;29;20297;-73
2024/03/14 17:33:44;;;;;;;1.30;0.40;;;16.90;99.90;;;;;;4881109;29;20238;-73
2024/03/14 17:36:15;;;;;;;1.08;0.50;;;16.80;99.90;;;;;;4880762;29;20595;-73
2024/03/14 17:38:43;;;;;;;2.92;0.60;;;16.80;99.90;;;;;;4880960;29;20214;-73
2024/03/14 17:41:10;;;;;;;2.30;0.60;;;16.70;99.90;;;;;;4881071;29;20214;-73
2024/03/14 17:43:38;;;;;;;0.73;0.50;;;16.70;99.90;;;;;;4880786;29;20242;-73
2024/03/14 17:46:06;;;;;;;1.40;0.38;;;16.70;99.90;;;;;;4880913;29;20321;-73
2024/03/14 17:48:33;;;;;;;2.35;0.40;;;16.60;99.90;;;;;;4881086;29;20249;-73
2024/03/14 17:51:01;;;;;;;0.68;0.45;;;16.60;99.90;;;;;;4881542;29;20206;-73
2024/03/14 17:53:28;;;;;;;0.77;0.45;;;16.60;99.90;;;;;;4884722;29;20237;-73
2024/03/14 17:55:55;;;;;;;1.45;0.55;;;16.70;99.90;;;;;;4884600;29;20262;-73
2024/03/14 17:58:22;;;;;;;1.15;0.40;;;16.60;99.90;;;;;;4884588;29;20261;-73
2024/03/14 18:00:48;;;;;;;0.93;0.55;;;16.60;99.90;;;;;;4884222;29;20306;-73
2024/03/14 18:03:16;;;;;;;1.98;0.60;;;16.50;99.90;;;;;;4884277;29;20298;-73
2024/03/14 18:05:43;;;;;;;1.70;0.67;;;16.40;99.90;;;;;;4884446;29;20246;-72
2024/03/14 18:08:10;;;;;;;1.83;0.70;;;16.30;99.90;;;;;;4884031;29;20207;-73
2024/03/14 18:10:37;;;;;;;1.10;0.60;;;16.30;99.90;;;;;;4883983;29;20297;-73
2024/03/14 18:13:05;;;;;;;2.63;0.83;;;16.30;99.90;;;;;;4883896;29;20274;-73
2024/03/14 18:15:32;;;;;;;1.53;0.67;;;16.20;99.90;;;;;;4883684;29;20723;-73
2024/03/14 18:17:59;;;;;;;0.67;0.37;;;16.20;99.90;;;;;;4883922;29;20731;-73
2024/03/14 18:20:26;;;;;;;3.83;0.90;;;16.30;99.90;;;;;;4884260;29;20580;-73
2024/03/14 18:22:54;;;;;;;4.17;0.73;;;16.20;99.90;;;;;;4883804;29;20387;-73
2024/03/14 18:25:22;;;;;;;1.55;0.50;;;16.20;99.90;;;;;;4883963;29;20213;-73
2024/03/14 18:27:50;;;;;;;1.65;0.50;;;16.20;99.90;;;;;;4883870;29;20289;-73
2024/03/14 18:30:18;;;;;;;1.20;0.63;;;16.10;99.90;;;;;;4883917;29;20225;-73
2024/03/14 18:32:45;;;;;;;2.83;0.60;;;16.10;99.90;;;;;;4884123;29;20262;-73
2024/03/14 18:35:16;;;;;;;1.97;0.90;;;16.10;99.90;;;;;;4883649;29;20210;-73
2024/03/14 18:37:44;;;;;;;1.50;0.70;;;16.10;99.90;;;;;;4884162;29;20230;-72
2024/03/14 18:40:12;;;;;;;1.43;0.83;;;16.00;99.90;;;;;;4883885;29;20728;-72
2024/03/14 18:42:39;;;;;;;2.03;0.83;;;16.00;99.90;;;;;;4883625;29;20211;-72
2024/03/14 18:45:08;;;;;;;2.13;0.73;;;15.90;99.90;;;;;;4883861;29;20214;-72
2024/03/14 18:47:35;;;;;;;2.30;1.00;;;16.00;99.90;;;;;;4883659;29;20770;-73
2024/03/14 18:50:02;;;;;;;1.50;1.00;;;16.00;99.90;;;;;;4883784;29;20211;-74
2024/03/14 18:52:29;;;;;;;4.03;1.00;;;15.90;99.90;;;;;;4883552;29;20242;-73
2024/03/14 18:54:58;;;;;;;1.20;0.87;;;15.80;99.90;;;;;;4883456;29;20249;-72
2024/03/14 18:57:25;;;;;;;2.23;1.10;;;15.90;99.90;;;;;;4878777;29;20328;-72
2024/03/14 18:59:52;;;;;;;1.93;1.40;;;15.90;99.90;;;;;;4880707;29;20647;-73
2024/03/14 19:02:21;;;;;;;2.30;1.40;;;15.80;99.90;;;;;;4882813;29;20235;-72
2024/03/14 19:04:49;;;;;;;2.67;1.30;;;15.80;99.90;;;;;;4883186;29;20220;-72
2024/03/14 19:07:17;;;;;;;3.57;1.57;;;15.70;99.90;;;;;;4882542;29;20231;-72
2024/03/14 19:09:44;;;;;;;3.83;1.43;;;15.60;99.90;;;;;;4882728;29;20328;-73
2024/03/14 19:12:11;;;;;;;1.93;1.40;;;15.50;99.90;;;;;;4882791;29;20210;-73
2024/03/14 19:14:40;;;;;;;3.07;1.30;;;15.60;99.90;;;;;;4882449;29;20328;-72
2024/03/14 19:17:09;;;;;;;4.27;1.70;;;15.60;99.90;;;;;;4870258;29;20231;-72
2024/03/14 19:19:37;;;;;;;1.83;1.47;;;15.50;99.90;;;;;;4882321;29;20648;-72
2024/03/14 19:22:04;;;;;;;2.63;1.53;;;15.50;99.90;;;;;;4882703;29;20221;-73
2024/03/14 19:24:31;;;;;;;1.77;1.33;;;15.50;99.90;;;;;;4880032;29;20625;-72
2024/03/14 19:26:59;;;;;;;2.33;1.80;;;15.40;99.90;;;;;;4878710;29;20767;-72
2024/03/14 19:29:26;;;;;;;2.33;1.53;;;15.40;99.90;;;;;;4876393;29;20207;-72
2024/03/14 19:31:57;;;;;;;2.80;1.80;;;15.50;99.90;;;;;;4881209;29;20221;-72
2024/03/14 19:34:25;;;;;;;1.90;1.50;;;15.50;99.90;;;;;;4881877;29;20746;-75
2024/03/14 19:36:52;;;;;;;3.10;1.73;;;15.50;99.90;;;;;;4881428;29;20238;-73
2024/03/14 19:39:19;;;;;;;3.20;1.80;;;15.50;99.90;;;;;;4881400;29;20234;-74
2024/03/14 19:41:46;;;;;;;3.23;1.67;;;15.40;99.90;;;;;;4881114;29;20719;-73
2024/03/14 19:44:14;;;;;;;3.50;1.60;;;15.40;99.90;;;;;;4882035;29;20301;-73
2024/03/14 19:46:44;;;;;;;2.97;2.00;;;15.40;99.90;;;;;;4881789;29;20706;-73
2024/03/14 19:49:11;;;;;;;2.33;2.00;;;15.40;99.90;;;;;;4882629;29;20297;-73
2024/03/14 19:51:39;;;;;;;2.73;1.97;;;15.40;99.90;;;;;;4882747;29;20238;-73
2024/03/14 19:54:06;;;;;;;3.47;2.00;;;15.40;99.90;;;;;;4881749;29;20238;-73
2024/03/14 19:56:36;;;;;;;4.40;2.23;;;15.40;99.90;;;;;;4881098;29;20258;-72
2024/03/14 19:59:03;;;;;;;4.07;2.17;;;15.40;99.90;;;;;;4868976;29;20246;-73
2024/03/14 20:01:30;;;;;;;4.23;2.07;;;15.30;99.90;;;;;;4896196;29;20250;-73
2024/03/14 20:03:57;;;;;;;3.07;1.97;;;15.30;99.90;;;;;;4881945;29;20297;-73
2024/03/14 20:06:24;;;;;;;4.80;2.30;;;15.30;99.90;;;;;;4881487;29;20711;-72
2024/03/14 20:08:51;;;;;;;3.10;2.13;;;15.30;99.90;;;;;;4881353;29;20740;-73
2024/03/14 20:11:18;;;;;;;3.30;2.27;;;15.30;99.90;;;;;;4881376;29;20709;-73
2024/03/14 20:13:46;;;;;;;3.30;2.27;;;15.30;99.90;;;;;;4880945;29;20336;-73
2024/03/14 20:16:17;;;;;;;4.67;2.40;;;15.40;99.90;;;;;;4879903;29;20231;-73
2024/03/14 20:18:44;;;;;;;6.80;2.23;;;15.40;99.90;;;;;;4881024;29;20220;-73
2024/03/14 20:21:11;;;;;;;4.73;2.17;;;15.40;99.90;;;;;;4881085;29;20207;-74
2024/03/14 20:23:38;;;;;;;4.90;2.43;;;15.40;99.90;;;;;;4881713;29;20214;-73
2024/03/14 20:26:07;;;;;;;5.33;3.27;;;15.30;99.90;;;;;;4881325;29;20363;-73
2024/03/14 20:28:35;;;;;;;6.00;3.47;;;15.20;99.90;;;;;;4878299;29;20685;-73
2024/03/14 20:31:02;;;;;;;4.77;2.23;;;15.20;99.90;;;;;;4878672;29;20702;-73
2024/03/14 20:33:30;;;;;;;3.40;2.33;;;15.20;99.90;;;;;;4881132;29;20234;-74
2024/03/14 20:35:58;;;;;;;3.97;2.23;;;15.20;99.90;;;;;;4872268;29;20234;-74
2024/03/14 20:38:25;;;;;;;3.13;2.50;;;15.20;99.90;;;;;;4876057;29;20214;-74
2024/03/14 20:40:54;;;;;;;3.10;2.20;;;15.20;99.90;;;;;;4881570;29;20214;-73
2024/03/14 20:43:22;;;;;;;2.67;2.03;;;15.00;99.90;;;;;;4881589;29;20602;-74
2024/03/14 20:45:49;;;;;;;4.80;3.17;;;15.00;99.90;;;;;;4881086;29;20206;-74
2024/03/14 20:48:17;;;;;;;3.57;2.20;;;14.90;99.90;;;;;;4880770;29;20319;-75
2024/03/14 20:50:44;;;;;;;5.67;2.30;;;14.90;99.90;;;;;;4881496;29;20221;-74